createdAt,value
2019-05-12T00:00:33.202Z,10.9
2019-05-12T00:01:34.797Z,11
2019-05-12T00:02:39.435Z,10.9
2019-05-12T00:03:41.487Z,10.7
2019-05-12T00:04:43.354Z,10.6
2019-05-12T00:05:45.231Z,10.7
2019-05-12T00:06:49.352Z,10.2
2019-05-12T00:07:51.221Z,11.2
2019-05-12T00:08:53.090Z,11.1
2019-05-12T00:09:54.684Z,11
2019-05-12T00:10:58.659Z,11.1
2019-05-12T00:12:00.716Z,10.6
2019-05-12T00:13:02.583Z,10.4
2019-05-12T00:14:04.451Z,11.2
2019-05-12T00:15:08.500Z,10.9
2019-05-12T00:16:10.356Z,10.4
2019-05-12T00:17:12.226Z,11.1
2019-05-12T00:18:13.822Z,10.9
2019-05-12T00:19:15.121Z,10.8
2019-05-12T00:20:19.635Z,10.6
2019-05-12T00:21:21.501Z,10.1
2019-05-12T00:22:23.367Z,10.8
2019-05-12T00:23:32.125Z,10.5
2019-05-12T00:24:34.003Z,10.6
2019-05-12T00:25:35.868Z,10.4
2019-05-12T00:26:39.742Z,10.7
2019-05-12T00:27:41.609Z,10.5
2019-05-12T00:28:43.475Z,10.5
2019-05-12T00:29:45.345Z,11
2019-05-12T00:30:49.640Z,10.9
2019-05-12T00:31:51.516Z,10.7
2019-05-12T00:32:53.387Z,11
2019-05-12T00:33:55.252Z,10.8
2019-05-12T00:34:58.954Z,11.2
2019-05-12T00:36:00.824Z,11
2019-05-12T00:37:02.414Z,10.1
2019-05-12T00:38:04.281Z,10.3
2019-05-12T00:39:07.935Z,10.4
2019-05-12T00:40:10.431Z,10.4
2019-05-12T00:41:12.297Z,11.4
2019-05-12T00:42:14.165Z,10.4
2019-05-12T00:43:15.789Z,10.7
2019-05-12T00:44:19.886Z,10.6
2019-05-12T00:45:21.762Z,11.2
2019-05-12T00:46:23.630Z,11.1
2019-05-12T00:47:25.495Z,10.7
2019-05-12T00:48:29.789Z,11.1
2019-05-12T00:49:31.657Z,11
2019-05-12T00:50:33.524Z,11.3
2019-05-12T00:51:35.391Z,11.4
2019-05-12T00:52:39.872Z,11.2
2019-05-12T00:53:44.886Z,11.3
2019-05-12T00:54:49.264Z,11.7
2019-05-12T00:55:51.139Z,11
2019-05-12T00:56:53.007Z,10.6
2019-05-12T00:57:54.584Z,10.4
2019-05-12T00:58:58.455Z,10.6
2019-05-12T01:00:00.331Z,11.3
2019-05-12T01:01:01.636Z,11.4
2019-05-12T01:02:03.226Z,11.1
2019-05-12T01:03:05.094Z,10.4
2019-05-12T01:04:09.724Z,12.4
2019-05-12T01:05:11.591Z,10.9
2019-05-12T01:06:13.460Z,11.3
2019-05-12T01:07:15.327Z,11.6
2019-05-12T01:08:19.614Z,11.2
2019-05-12T01:09:21.486Z,11.5
2019-05-12T01:10:23.352Z,11.9
2019-05-12T01:11:25.218Z,11.4
2019-05-12T01:12:29.039Z,11
2019-05-12T01:13:30.627Z,11.1
2019-05-12T01:14:32.494Z,11.8
2019-05-12T01:15:34.360Z,12
2019-05-12T01:16:38.883Z,11.9
2019-05-12T01:17:41.982Z,11.6
2019-05-12T01:18:43.851Z,12.5
2019-05-12T01:19:45.718Z,12
2019-05-12T01:20:49.412Z,12.3
2019-05-12T01:21:51.277Z,12.5
2019-05-12T01:22:53.142Z,12.2
2019-05-12T01:24:04.123Z,11.6
2019-05-12T01:25:08.322Z,12.6
2019-05-12T01:26:10.354Z,11.5
2019-05-12T01:27:12.220Z,11.3
2019-05-12T01:28:14.087Z,11.8
2019-05-12T01:29:18.126Z,12.1
2019-05-12T01:30:19.991Z,12.1
2019-05-12T01:31:21.858Z,12.9
2019-05-12T01:32:23.724Z,12.1
2019-05-12T01:33:28.052Z,12.3
2019-05-12T01:34:29.925Z,12
2019-05-12T01:35:31.800Z,11.3
2019-05-12T01:36:33.674Z,11.9
2019-05-12T01:37:35.541Z,14.2
2019-05-12T01:38:39.142Z,12.1
2019-05-12T01:39:41.007Z,12.4
2019-05-12T01:40:42.873Z,12.2
2019-05-12T01:41:44.467Z,12.3
2019-05-12T01:42:48.032Z,12.2
2019-05-12T01:43:50.282Z,15.1
2019-05-12T01:44:52.150Z,12.1
2019-05-12T01:45:54.017Z,12.4
2019-05-12T01:46:58.203Z,12.9
2019-05-12T01:48:00.882Z,12.5
2019-05-12T01:49:02.185Z,12.9
2019-05-12T01:50:04.050Z,12.1
2019-05-12T01:51:05.643Z,13
2019-05-12T01:52:10.098Z,12.9
2019-05-12T01:53:11.966Z,12.7
2019-05-12T01:54:19.311Z,13.2
2019-05-12T01:55:21.179Z,13.1
2019-05-12T01:56:23.046Z,12.5
2019-05-12T01:57:24.913Z,12
2019-05-12T01:58:28.713Z,11.7
2019-05-12T01:59:30.578Z,12.6
2019-05-12T02:00:32.446Z,12.5
2019-05-12T02:01:34.036Z,11.9
2019-05-12T02:02:35.907Z,13
2019-05-12T02:03:39.175Z,12.4
2019-05-12T02:04:41.038Z,12.8
2019-05-12T02:05:42.905Z,12.5
2019-05-12T02:06:44.773Z,12.9
2019-05-12T02:07:49.307Z,12.5
2019-05-12T02:08:51.171Z,13.1
2019-05-12T02:09:53.042Z,13
2019-05-12T02:10:54.913Z,12.6
2019-05-12T02:11:59.175Z,13.9
2019-05-12T02:13:01.143Z,12.5
2019-05-12T02:14:03.007Z,12.9
2019-05-12T02:15:04.874Z,13.7
2019-05-12T02:16:09.200Z,12.6
2019-05-12T02:17:11.068Z,14
2019-05-12T02:18:12.934Z,12.9
2019-05-12T02:19:14.802Z,13
2019-05-12T02:20:19.045Z,12.5
2019-05-12T02:21:20.925Z,13
2019-05-12T02:22:22.792Z,13.5
2019-05-12T02:23:24.660Z,13.1
2019-05-12T02:24:31.647Z,13
2019-05-12T02:25:33.513Z,14
2019-05-12T02:26:35.113Z,13.6
2019-05-12T02:27:39.245Z,13.1
2019-05-12T02:28:41.117Z,13.4
2019-05-12T02:29:42.982Z,13.2
2019-05-12T02:30:44.851Z,13.3
2019-05-12T02:31:50.513Z,13.4
2019-05-12T02:33:00.617Z,13.5
2019-05-12T02:34:06.118Z,13.3
2019-05-12T02:35:07.699Z,13.1
2019-05-12T02:36:09.561Z,13.1
2019-05-12T02:37:11.160Z,13.4
2019-05-12T02:38:15.933Z,12.9
2019-05-12T02:39:17.811Z,13.7
2019-05-12T02:40:19.680Z,13
2019-05-12T02:41:21.269Z,13.4
2019-05-12T02:42:25.962Z,13.4
2019-05-12T02:43:27.825Z,14.2
2019-05-12T02:44:29.691Z,13.3
2019-05-12T02:45:31.566Z,14.4
2019-05-12T02:46:36.166Z,13.6
2019-05-12T02:47:38.341Z,13.7
2019-05-12T02:48:40.285Z,13.8
2019-05-12T02:49:45.341Z,13.9
2019-05-12T02:50:46.934Z,14.6
2019-05-12T02:51:48.240Z,13.9
2019-05-12T02:52:50.103Z,13.5
2019-05-12T02:53:54.985Z,13.7
2019-05-12T02:55:06.951Z,13.8
2019-05-12T02:56:08.815Z,13.7
2019-05-12T02:57:10.682Z,14.6
2019-05-12T02:58:16.019Z,13.9
2019-05-12T02:59:18.033Z,13.6
2019-05-12T03:00:19.901Z,14.1
2019-05-12T03:01:25.232Z,14.3
2019-05-12T03:02:27.098Z,14.3
2019-05-12T03:03:28.968Z,14.1
2019-05-12T03:04:30.831Z,14.3
2019-05-12T03:05:35.987Z,15.9
2019-05-12T03:06:37.889Z,14.7
2019-05-12T03:07:39.753Z,14.2
2019-05-12T03:08:44.598Z,13.9
2019-05-12T03:09:46.680Z,14
2019-05-12T03:10:48.294Z,13.9
2019-05-12T03:11:50.134Z,14
2019-05-12T03:12:55.368Z,14.1
2019-05-12T03:13:56.964Z,14.8
2019-05-12T03:14:58.834Z,14.7
2019-05-12T03:16:00.687Z,14.5
2019-05-12T03:17:05.627Z,14.5
2019-05-12T03:18:08.651Z,15
2019-05-12T03:19:10.524Z,14.9
2019-05-12T03:20:15.714Z,14.9
2019-05-12T03:21:17.570Z,14.3
2019-05-12T03:22:19.434Z,14
2019-05-12T03:23:24.506Z,14.5
2019-05-12T03:24:26.790Z,14.5
2019-05-12T03:25:35.054Z,16
2019-05-12T03:26:37.195Z,15
2019-05-12T03:27:39.052Z,15.6
2019-05-12T03:28:40.915Z,15.1
2019-05-12T03:29:46.312Z,15.7
2019-05-12T03:30:50.334Z,15.1
2019-05-12T03:31:58.143Z,14.8
2019-05-12T03:33:00.263Z,16
2019-05-12T03:34:18.423Z,14.8
2019-05-12T03:35:20.847Z,15.8
2019-05-12T03:36:45.020Z,15.4
2019-05-12T03:37:54.694Z,16.2
2019-05-12T03:38:56.808Z,16
2019-05-12T03:39:58.672Z,16.4
2019-05-12T03:41:00.536Z,16.1
2019-05-12T03:42:05.527Z,16.1
2019-05-12T03:43:07.503Z,15.5
2019-05-12T03:44:09.365Z,17
2019-05-12T03:45:10.984Z,15.8
2019-05-12T03:46:16.089Z,16.4
2019-05-12T03:47:17.948Z,15.9
2019-05-12T03:48:19.813Z,15.5
2019-05-12T03:49:24.837Z,16.5
2019-05-12T03:50:26.700Z,16.4
2019-05-12T03:51:28.286Z,16.4
2019-05-12T03:52:30.149Z,15.8
2019-05-12T03:53:35.709Z,17.2
2019-05-12T03:54:37.285Z,16.4
2019-05-12T03:55:48.046Z,17.3
2019-05-12T03:56:49.896Z,17.5
2019-05-12T03:57:54.884Z,16.5
2019-05-12T03:58:56.928Z,16.7
2019-05-12T03:59:58.516Z,16.7
2019-05-12T04:01:00.374Z,17.4
2019-05-12T04:02:05.599Z,15.8
2019-05-12T04:03:07.703Z,16.3
2019-05-12T04:04:09.571Z,16.6
2019-05-12T04:05:11.430Z,16.9
2019-05-12T04:06:16.538Z,17.3
2019-05-12T04:07:18.400Z,18
2019-05-12T04:08:20.259Z,17.9
2019-05-12T04:09:25.503Z,18.1
2019-05-12T04:10:27.385Z,18.3
2019-05-12T04:11:29.237Z,17.7
2019-05-12T04:12:34.166Z,17.8
2019-05-12T04:13:36.408Z,17.7
2019-05-12T04:14:38.280Z,17.8
2019-05-12T04:15:40.135Z,17.2
2019-05-12T04:16:45.619Z,16.6
2019-05-12T04:17:47.188Z,16.5
2019-05-12T04:18:49.050Z,16.4
2019-05-12T04:19:50.636Z,16.4
2019-05-12T04:20:55.931Z,16.8
2019-05-12T04:21:57.797Z,17.3
2019-05-12T04:22:59.665Z,17.1
2019-05-12T04:24:04.874Z,17.1
2019-05-12T04:25:07.950Z,16.1
2019-05-12T04:26:18.110Z,16.6
2019-05-12T04:27:19.972Z,16.5
2019-05-12T04:28:25.471Z,16.7
2019-05-12T04:29:27.336Z,17.4
2019-05-12T04:30:29.202Z,16.7
2019-05-12T04:31:31.070Z,16.5
2019-05-12T04:32:36.570Z,16.9
2019-05-12T04:33:38.434Z,17
2019-05-12T04:34:40.299Z,17
2019-05-12T04:35:45.548Z,17.1
2019-05-12T04:36:47.455Z,17.7
2019-05-12T04:37:49.319Z,18.2
2019-05-12T04:38:51.185Z,16.4
2019-05-12T04:39:56.050Z,16.1
2019-05-12T04:40:57.917Z,16.8
2019-05-12T04:41:59.790Z,16.1
2019-05-12T04:43:05.034Z,17.5
2019-05-12T04:44:07.949Z,17.2
2019-05-12T04:45:09.824Z,17.2
2019-05-12T04:46:14.994Z,17.8
2019-05-12T04:47:16.863Z,16.5
2019-05-12T04:48:26.621Z,16.6
2019-05-12T04:49:28.491Z,16.9
2019-05-12T04:50:30.075Z,16.7
2019-05-12T04:51:35.482Z,17.1
2019-05-12T04:52:37.403Z,16.2
2019-05-12T04:53:39.285Z,16.7
2019-05-12T04:54:44.223Z,16
2019-05-12T04:56:15.452Z,15.8
2019-05-12T04:57:25.801Z,15.9
2019-05-12T04:58:27.712Z,15.9
2019-05-12T04:59:29.584Z,16.1
2019-05-12T05:00:35.654Z,17
2019-05-12T05:01:37.670Z,16.3
2019-05-12T05:02:39.256Z,16.3
2019-05-12T05:03:43.976Z,15.7
2019-05-12T05:04:46.117Z,17.1
2019-05-12T05:05:47.983Z,17.2
2019-05-12T05:06:49.846Z,15
2019-05-12T05:07:51.435Z,15.9
2019-05-12T05:08:55.974Z,15.9
2019-05-12T05:09:57.854Z,16.7
2019-05-12T05:10:59.712Z,15.9
2019-05-12T05:12:04.326Z,15.8
2019-05-12T05:13:06.881Z,16
2019-05-12T05:14:08.749Z,15.2
2019-05-12T05:15:10.613Z,16.1
2019-05-12T05:16:15.459Z,16.7
2019-05-12T05:17:17.324Z,14.7
2019-05-12T05:18:19.186Z,15
2019-05-12T05:19:21.050Z,15.5
2019-05-12T05:20:25.341Z,15.8
2019-05-12T05:21:27.209Z,16.4
2019-05-12T05:22:29.076Z,15.8
2019-05-12T05:23:30.940Z,14.9
2019-05-12T05:24:35.301Z,15.1
2019-05-12T05:25:37.188Z,15.3
2019-05-12T05:26:39.051Z,15.4
2019-05-12T05:27:40.913Z,15.4
2019-05-12T05:28:44.961Z,15.3
2019-05-12T05:29:46.550Z,15.9
2019-05-12T05:30:48.414Z,16
2019-05-12T05:31:50.000Z,15.9
2019-05-12T05:32:54.008Z,15.8
2019-05-12T05:33:55.335Z,14.9
2019-05-12T05:34:59.022Z,15
2019-05-12T05:36:00.888Z,15.2
2019-05-12T05:37:05.041Z,15.3
2019-05-12T05:38:18.541Z,15
2019-05-12T05:39:24.044Z,14.6
2019-05-12T05:40:31.614Z,15
2019-05-12T05:41:46.275Z,15.3
2019-05-12T05:42:50.831Z,15
2019-05-12T05:43:59.508Z,15
2019-05-12T05:45:01.369Z,15.2
2019-05-12T05:46:09.127Z,15.6
2019-05-12T05:47:10.991Z,15
2019-05-12T05:48:15.102Z,16.2
2019-05-12T05:49:16.968Z,15.7
2019-05-12T05:50:29.925Z,15.3
2019-05-12T05:51:34.393Z,15.3
2019-05-12T05:52:40.937Z,15.8
2019-05-12T05:53:51.876Z,14.8
2019-05-12T05:54:55.730Z,15.4
2019-05-12T05:56:01.327Z,15.3
2019-05-12T05:57:07.242Z,15.8
2019-05-12T05:58:11.489Z,14.9
2019-05-12T05:59:21.775Z,15.3
2019-05-12T06:00:38.784Z,15.3
2019-05-12T06:01:55.406Z,15.1
2019-05-12T06:02:56.976Z,14.8
2019-05-12T06:04:09.226Z,14.8
2019-05-12T06:05:10.801Z,15.4
2019-05-12T06:06:16.497Z,15.7
2019-05-12T06:07:18.090Z,14.9
2019-05-12T06:08:24.773Z,15.5
2019-05-12T06:09:26.641Z,15.2
2019-05-12T06:10:43.918Z,15.3
2019-05-12T06:11:45.511Z,15.4
2019-05-12T06:12:54.111Z,15.1
2019-05-12T06:13:56.055Z,15.2
2019-05-12T06:15:01.388Z,15.5
2019-05-12T06:16:05.710Z,15.1
2019-05-12T06:17:07.286Z,14.4
2019-05-12T06:18:09.151Z,15.5
2019-05-12T06:19:11.012Z,14.5
2019-05-12T06:20:14.967Z,14.9
2019-05-12T06:21:16.833Z,13.8
2019-05-12T06:22:19.896Z,13.9
2019-05-12T06:23:28.874Z,13.5
2019-05-12T06:24:33.316Z,14.3
2019-05-12T06:25:55.309Z,14.6
2019-05-12T06:27:21.339Z,13.8
2019-05-12T06:28:24.990Z,14.2
2019-05-12T06:29:26.855Z,14.4
2019-05-12T06:30:28.430Z,14.7
2019-05-12T06:31:33.819Z,15.2
2019-05-12T06:32:35.679Z,13.8
2019-05-12T06:33:37.890Z,14.5
2019-05-12T06:34:39.756Z,13.9
2019-05-12T06:35:46.022Z,13.6
2019-05-12T06:36:47.885Z,12.8
2019-05-12T06:38:05.453Z,12.8
2019-05-12T06:39:23.424Z,13.1
2019-05-12T06:40:25.930Z,12.5
2019-05-12T06:41:27.809Z,12.2
2019-05-12T06:42:29.377Z,13.1
2019-05-12T06:43:45.758Z,12.3
2019-05-12T06:44:58.814Z,13
2019-05-12T06:46:00.675Z,12.8
2019-05-12T06:47:09.383Z,12.4
2019-05-12T06:48:11.247Z,12.6
2019-05-12T06:49:18.714Z,12.3
2019-05-12T06:50:20.578Z,11.6
2019-05-12T06:51:27.090Z,11.9
2019-05-12T06:52:28.954Z,11.5
2019-05-12T06:53:34.643Z,12.6
2019-05-12T06:54:36.508Z,11.6
2019-05-12T06:55:43.123Z,12.1
2019-05-12T06:56:44.792Z,12.3
2019-05-12T06:57:51.521Z,11.7
2019-05-12T06:58:54.981Z,12.2
2019-05-12T06:59:56.848Z,11.4
2019-05-12T07:01:19.930Z,12
2019-05-12T07:02:21.509Z,12
2019-05-12T07:03:37.338Z,13.6
2019-05-12T07:04:59.563Z,11.9
2019-05-12T07:06:03.856Z,12.9
2019-05-12T07:07:05.901Z,12.4
2019-05-12T07:08:07.766Z,11.5
2019-05-12T07:09:32.034Z,12.7
2019-05-12T07:11:03.602Z,12.3
2019-05-12T07:12:08.440Z,11.9
2019-05-12T07:13:22.974Z,11.9
2019-05-12T07:14:29.059Z,11.8
2019-05-12T07:15:43.742Z,11.9
2019-05-12T07:16:45.739Z,11.9
2019-05-12T07:17:53.087Z,13
2019-05-12T07:18:57.419Z,12.2
2019-05-12T07:19:59.847Z,11.7
2019-05-12T07:21:04.008Z,11.2
2019-05-12T07:22:31.197Z,11.7
2019-05-12T07:23:35.195Z,12.1
2019-05-12T07:24:49.930Z,12.2
2019-05-12T07:25:51.801Z,12
2019-05-12T07:27:10.028Z,11.8
2019-05-12T07:28:11.617Z,12.1
2019-05-12T07:29:14.872Z,10.5
2019-05-12T07:30:16.462Z,11.3
2019-05-12T07:31:18.326Z,10.9
2019-05-12T07:32:25.690Z,11.5
2019-05-12T07:33:32.673Z,11.9
2019-05-12T07:34:44.163Z,12.8
2019-05-12T07:35:46.052Z,12.1
2019-05-12T07:36:47.933Z,11.2
2019-05-12T07:37:49.807Z,10.9
2019-05-12T07:39:06.115Z,10.7
2019-05-12T07:40:10.010Z,10.3
2019-05-12T07:41:14.815Z,10.1
2019-05-12T07:42:16.683Z,10.7
2019-05-12T07:43:24.119Z,11.4
2019-05-12T07:44:31.964Z,11.2
2019-05-12T07:45:40.583Z,10.5
2019-05-12T07:46:50.584Z,10
2019-05-12T07:47:59.258Z,10.2
2019-05-12T07:49:03.699Z,9.8
2019-05-12T07:50:20.315Z,9.3
2019-05-12T07:51:30.206Z,9.2
2019-05-12T07:52:34.697Z,8.6
2019-05-12T07:53:36.300Z,8.7
2019-05-12T07:54:40.963Z,8.9
2019-05-12T07:55:50.576Z,8.6
2019-05-12T07:56:54.391Z,8.5
2019-05-12T07:58:19.748Z,7.9
2019-05-12T07:59:26.530Z,8.8
2019-05-12T08:00:29.607Z,9.7
2019-05-12T08:01:52.516Z,9.5
2019-05-12T08:02:56.239Z,9.6
2019-05-12T08:04:04.937Z,8.8
2019-05-12T08:05:19.379Z,8.4
2019-05-12T08:06:21.594Z,8.1
2019-05-12T08:07:31.066Z,8.7
2019-05-12T08:08:35.348Z,9.4
2019-05-12T08:09:38.064Z,8.8
2019-05-12T08:10:39.930Z,8.2
2019-05-12T08:11:44.350Z,9
2019-05-12T08:12:46.223Z,8.6
2019-05-12T08:13:48.093Z,8.3
2019-05-12T08:14:49.955Z,8.3
2019-05-12T08:15:57.571Z,9.1
2019-05-12T08:17:19.850Z,9.7
2019-05-12T08:18:21.712Z,8.8
2019-05-12T08:19:29.767Z,9
2019-05-12T08:20:34.055Z,8.7
2019-05-12T08:21:49.852Z,9.4
2019-05-12T08:22:51.440Z,8.6
2019-05-12T08:23:54.877Z,8.7
2019-05-12T08:24:56.741Z,9.3
2019-05-12T08:26:03.272Z,9.7
2019-05-12T08:27:15.175Z,8.6
2019-05-12T08:28:40.748Z,9.6
2019-05-12T08:29:44.803Z,9.8
2019-05-12T08:30:55.917Z,10.4
2019-05-12T08:31:57.771Z,9.3
2019-05-12T08:33:11.066Z,9.2
2019-05-12T08:34:15.064Z,9.2
2019-05-12T08:35:38.922Z,8.9
2019-05-12T08:36:57.771Z,8.9
2019-05-12T08:37:59.853Z,9.1
2019-05-12T08:39:22.589Z,8.7
2019-05-12T08:40:26.285Z,9
2019-05-12T08:41:28.149Z,8.4
2019-05-12T08:42:30.019Z,7.6
2019-05-12T08:43:34.177Z,8.3
2019-05-12T08:44:44.805Z,8.1
2019-05-12T08:45:46.689Z,8.6
2019-05-12T08:46:57.463Z,8.4
2019-05-12T08:47:59.324Z,8.6
2019-05-12T08:49:06.455Z,8.3
2019-05-12T08:50:08.320Z,8.6
2019-05-12T08:51:20.716Z,8.6
2019-05-12T08:52:24.938Z,9.1
2019-05-12T08:53:27.112Z,8.9
2019-05-12T08:54:28.971Z,9.1
2019-05-12T08:55:36.804Z,9.6
2019-05-12T08:56:38.663Z,8.8
2019-05-12T08:57:50.325Z,8.9
2019-05-12T08:58:54.889Z,9.1
2019-05-12T09:00:09.233Z,8.9
2019-05-12T09:01:13.626Z,8.7
2019-05-12T09:02:15.768Z,8.7
2019-05-12T09:03:33.085Z,8.1
2019-05-12T09:04:35.421Z,8.6
2019-05-12T09:05:40.094Z,8.1
2019-05-12T09:06:44.406Z,7.9
2019-05-12T09:07:46.280Z,8.2
2019-05-12T09:08:50.324Z,8.3
2019-05-12T09:09:54.285Z,8.3
2019-05-12T09:10:57.011Z,8.3
2019-05-12T09:11:59.071Z,8.5
2019-05-12T09:13:00.952Z,8.7
2019-05-12T09:14:07.002Z,8.9
2019-05-12T09:15:09.915Z,9.7
2019-05-12T09:16:14.223Z,9.8
2019-05-12T09:17:16.087Z,9.8
2019-05-12T09:18:20.083Z,8.7
2019-05-12T09:19:28.334Z,9
2019-05-12T09:20:30.199Z,8.8
2019-05-12T09:21:37.870Z,9.3
2019-05-12T09:22:39.721Z,8.6
2019-05-12T09:23:46.330Z,8.2
2019-05-12T09:24:47.916Z,9
2019-05-12T09:25:49.950Z,8.8
2019-05-12T09:26:58.880Z,8.8
2019-05-12T09:28:03.566Z,8.2
2019-05-12T09:29:08.633Z,7.7
2019-05-12T09:30:11.315Z,7.8
2019-05-12T09:31:29.589Z,8.5
2019-05-12T09:32:33.352Z,7.8
2019-05-12T09:33:36.330Z,7.7
2019-05-12T09:34:38.195Z,8.6
2019-05-12T09:35:40.875Z,8
2019-05-12T09:36:45.088Z,8
2019-05-12T09:37:46.969Z,7.5
2019-05-12T09:39:02.925Z,7.8
2019-05-12T09:40:06.067Z,7.6
2019-05-12T09:41:07.932Z,7.4
2019-05-12T09:42:09.825Z,7.7
2019-05-12T09:43:14.533Z,7.9
2019-05-12T09:44:30.495Z,8.2
2019-05-12T09:45:34.796Z,7.6
2019-05-12T09:46:39.157Z,7.3
2019-05-12T09:47:44.043Z,8.1
2019-05-12T09:48:55.690Z,8.2
2019-05-12T09:49:57.557Z,7.6
2019-05-12T09:51:08.283Z,7.8
2019-05-12T09:52:27.764Z,7.8
2019-05-12T09:53:29.628Z,8.1
2019-05-12T09:54:43.876Z,8
2019-05-12T09:55:46.185Z,7.8
2019-05-12T09:57:00.282Z,7.8
2019-05-12T09:58:04.422Z,8.2
2019-05-12T09:59:26.314Z,9.1
2019-05-12T10:00:38.284Z,8.1
2019-05-12T10:01:46.490Z,8.4
2019-05-12T10:03:01.319Z,8.6
2019-05-12T10:04:05.001Z,8.3
2019-05-12T10:05:06.863Z,8.1
2019-05-12T10:06:21.932Z,8.7
2019-05-12T10:07:23.807Z,8
2019-05-12T10:08:37.956Z,8.3
2019-05-12T10:09:39.885Z,7.9
2019-05-12T10:10:47.742Z,8.5
2019-05-12T10:12:05.497Z,8.5
2019-05-12T10:13:07.577Z,8.3
2019-05-12T10:14:14.364Z,8.9
2019-05-12T10:15:29.282Z,8
2019-05-12T10:16:33.250Z,8.9
2019-05-12T10:17:35.300Z,8.9
2019-05-12T10:18:37.165Z,9
2019-05-12T10:19:39.029Z,8.7
2019-05-12T10:20:41.169Z,8.6
2019-05-12T10:21:59.530Z,8.2
2019-05-12T10:23:04.023Z,8
2019-05-12T10:24:06.308Z,7.8
2019-05-12T10:25:08.175Z,7.6
2019-05-12T10:26:15.624Z,7.4
2019-05-12T10:27:32.391Z,7.2
2019-05-12T10:28:35.951Z,6.9
2019-05-12T10:29:37.824Z,6.7
2019-05-12T10:30:39.685Z,7.1
2019-05-12T10:31:41.548Z,6.8
2019-05-12T10:32:45.143Z,6.7
2019-05-12T10:33:58.790Z,7.1
2019-05-12T10:35:00.415Z,6.5
2019-05-12T10:36:09.297Z,7
2019-05-12T10:37:13.199Z,7.4
2019-05-12T10:38:15.363Z,7.5
2019-05-12T10:39:17.241Z,7.6
2019-05-12T10:40:19.108Z,7.8
2019-05-12T10:41:20.976Z,8.1
2019-05-12T10:42:25.247Z,7.7
2019-05-12T10:43:27.109Z,7.4
2019-05-12T10:44:43.597Z,7.4
2019-05-12T10:45:45.407Z,7.1
2019-05-12T10:46:47.282Z,7
2019-05-12T10:47:49.147Z,7.3
2019-05-12T10:48:53.239Z,7.4
2019-05-12T10:49:55.614Z,7.3
2019-05-12T10:50:57.477Z,7.1
2019-05-12T10:51:59.071Z,7.7
2019-05-12T10:53:00.644Z,7.9
2019-05-12T10:54:16.358Z,8.1
2019-05-12T10:55:18.218Z,8.4
2019-05-12T10:56:20.083Z,8.3
2019-05-12T10:57:21.949Z,8.2
2019-05-12T10:58:26.182Z,7
2019-05-12T10:59:48.904Z,6.8
2019-05-12T11:00:50.755Z,6.8
2019-05-12T11:01:55.039Z,6.5
2019-05-12T11:03:09.665Z,6.4
2019-05-12T11:04:14.161Z,7.2
2019-05-12T11:05:26.885Z,7.9
2019-05-12T11:06:28.749Z,7.3
2019-05-12T11:07:31.459Z,6.7
2019-05-12T11:08:34.772Z,7.4
2019-05-12T11:09:36.641Z,6.9
2019-05-12T11:10:38.509Z,6.6
2019-05-12T11:11:48.008Z,6.8
2019-05-12T11:12:49.873Z,6.8
2019-05-12T11:13:53.591Z,7.2
2019-05-12T11:14:55.310Z,6.6
2019-05-12T11:15:57.177Z,6.4
2019-05-12T11:17:10.041Z,7.4
2019-05-12T11:18:11.632Z,7.2
2019-05-12T11:19:15.183Z,6.9
2019-05-12T11:20:17.055Z,7.4
2019-05-12T11:21:18.920Z,6.8
2019-05-12T11:22:20.789Z,6.6
2019-05-12T11:23:24.843Z,6.6
2019-05-12T11:24:26.708Z,6.6
2019-05-12T11:25:28.595Z,6.9
2019-05-12T11:26:30.460Z,6.7
2019-05-12T11:27:34.391Z,6.5
2019-05-12T11:28:36.335Z,6.7
2019-05-12T11:29:50.017Z,6.6
2019-05-12T11:30:51.876Z,6.6
2019-05-12T11:31:55.316Z,7.1
2019-05-12T11:33:00.405Z,7
2019-05-12T11:34:04.545Z,7.3
2019-05-12T11:35:06.669Z,6.9
2019-05-12T11:36:08.254Z,6.8
2019-05-12T11:37:10.126Z,6.5
2019-05-12T11:38:14.320Z,6.4
2019-05-12T11:39:16.183Z,6.6
2019-05-12T11:40:18.047Z,6.7
2019-05-12T11:41:27.468Z,6.6
2019-05-12T11:42:30.097Z,7.1
2019-05-12T11:43:34.234Z,6.9
2019-05-12T11:44:36.109Z,6.4
2019-05-12T11:45:37.699Z,6.1
2019-05-12T11:46:39.568Z,6.2
2019-05-12T11:47:41.434Z,6.3
2019-05-12T11:48:51.234Z,6.7
2019-05-12T11:50:09.865Z,7.1
2019-05-12T11:51:14.202Z,6.9
2019-05-12T11:52:20.588Z,6.6
2019-05-12T11:53:34.999Z,7.1
2019-05-12T11:54:46.999Z,6.6
2019-05-12T11:55:50.960Z,6.5
2019-05-12T11:56:54.917Z,6.1
2019-05-12T11:58:12.099Z,5.6
2019-05-12T11:59:15.349Z,6.1
2019-05-12T12:00:17.215Z,6.3
2019-05-12T12:01:19.081Z,6.1
2019-05-12T12:02:31.209Z,6.5
2019-05-12T12:03:35.060Z,5.9
2019-05-12T12:04:36.928Z,6.1
2019-05-12T12:05:39.876Z,6.2
2019-05-12T12:06:41.178Z,6.1
2019-05-12T12:07:56.727Z,5.9
2019-05-12T12:08:58.328Z,6.5
2019-05-12T12:10:01.056Z,6.3
2019-05-12T12:11:05.372Z,6.4
2019-05-12T12:12:14.360Z,5.5
2019-05-12T12:13:30.544Z,6.4
2019-05-12T12:14:40.087Z,6
2019-05-12T12:15:41.866Z,5.9
2019-05-12T12:16:55.034Z,5.2
2019-05-12T12:17:56.837Z,5.3
2019-05-12T12:19:06.928Z,5
2019-05-12T12:20:13.782Z,4.9
2019-05-12T12:21:25.315Z,5.6
2019-05-12T12:22:31.172Z,5.8
2019-05-12T12:23:34.888Z,6.2
2019-05-12T12:24:39.483Z,6.3
2019-05-12T12:25:50.646Z,5.8
2019-05-12T12:26:55.122Z,5.9
2019-05-12T12:27:56.984Z,5.7
2019-05-12T12:28:58.849Z,5.5
2019-05-12T12:30:21.438Z,5.8
2019-05-12T12:31:35.406Z,6.1
2019-05-12T12:32:39.232Z,5.8
2019-05-12T12:33:48.056Z,6.2
2019-05-12T12:34:49.917Z,5.4
2019-05-12T12:36:01.314Z,5
2019-05-12T12:37:04.760Z,5.1
2019-05-12T12:38:06.771Z,5.4
2019-05-12T12:39:08.648Z,6
2019-05-12T12:40:10.514Z,5.9
2019-05-12T12:41:14.605Z,5.6
2019-05-12T12:42:16.473Z,5.7
2019-05-12T12:43:18.350Z,5.3
2019-05-12T12:44:20.223Z,5.8
2019-05-12T12:45:24.699Z,5.2
2019-05-12T12:46:26.565Z,5.5
2019-05-12T12:47:28.154Z,4.8
2019-05-12T12:48:33.390Z,5.3
2019-05-12T12:49:39.811Z,5.6
2019-05-12T12:50:44.317Z,5.8
2019-05-12T12:51:46.358Z,5.5
2019-05-12T12:52:50.332Z,5.7
2019-05-12T12:53:54.489Z,5.7
2019-05-12T12:55:09.009Z,5.9
2019-05-12T12:56:15.966Z,5.2
2019-05-12T12:57:25.676Z,5.2
2019-05-12T12:58:35.425Z,4.8
2019-05-12T12:59:37.294Z,5
2019-05-12T13:00:57.448Z,5.3
2019-05-12T13:02:09.887Z,5.6
2019-05-12T13:03:14.127Z,5.8
2019-05-12T13:04:16.180Z,5.7
2019-05-12T13:05:18.046Z,5.4
2019-05-12T13:06:19.916Z,6.1
2019-05-12T13:07:23.993Z,6.4
2019-05-12T13:08:26.238Z,6.2
2019-05-12T13:09:27.829Z,6.4
2019-05-12T13:10:29.695Z,6.7
2019-05-12T13:11:36.183Z,6.3
2019-05-12T13:12:37.775Z,6.2
2019-05-12T13:13:39.638Z,6.3
2019-05-12T13:14:41.506Z,5.8
2019-05-12T13:15:45.234Z,6.8
2019-05-12T13:16:56.795Z,6.1
2019-05-12T13:17:58.659Z,6.1
2019-05-12T13:19:17.718Z,6.4
2019-05-12T13:20:19.308Z,6.7
2019-05-12T13:21:21.175Z,6.1
2019-05-12T13:22:25.022Z,6.9
2019-05-12T13:23:42.278Z,6.1
2019-05-12T13:24:45.441Z,6.2
2019-05-12T13:25:55.422Z,6.8
2019-05-12T13:26:57.290Z,6.1
2019-05-12T13:28:19.563Z,6.6
2019-05-12T13:29:40.145Z,6.6
2019-05-12T13:30:50.424Z,7.4
2019-05-12T13:31:54.291Z,6.6
2019-05-12T13:32:56.153Z,6.4
2019-05-12T13:33:58.101Z,6.6
2019-05-12T13:34:59.969Z,6.7
2019-05-12T13:36:04.102Z,6.5
2019-05-12T13:37:20.365Z,6.8
2019-05-12T13:38:24.712Z,6.5
2019-05-12T13:39:26.576Z,6.7
2019-05-12T13:40:39.946Z,6.4
2019-05-12T13:41:44.207Z,6.2
2019-05-12T13:42:46.076Z,6.2
2019-05-12T13:44:00.919Z,6.1
2019-05-12T13:45:05.077Z,5.7
2019-05-12T13:46:06.666Z,5.9
2019-05-12T13:47:08.534Z,6.2
2019-05-12T13:48:20.929Z,5.5
2019-05-12T13:49:29.902Z,5.4
2019-05-12T13:50:31.945Z,5.6
2019-05-12T13:51:34.824Z,5.5
2019-05-12T13:52:36.691Z,5.3
2019-05-12T13:53:50.827Z,5.7
2019-05-12T13:54:52.704Z,5.7
2019-05-12T13:55:55.855Z,5.3
2019-05-12T13:56:57.445Z,5.1
2019-05-12T13:57:58.600Z,5.3
2019-05-12T13:59:00.467Z,5.6
2019-05-12T14:00:14.444Z,5.6
2019-05-12T14:01:24.653Z,4.9
2019-05-12T14:02:26.652Z,4.9
2019-05-12T14:03:29.486Z,5
2019-05-12T14:04:31.080Z,4.7
2019-05-12T14:05:32.674Z,4.6
2019-05-12T14:06:39.374Z,5.3
2019-05-12T14:07:43.416Z,5.1
2019-05-12T14:08:46.062Z,5
2019-05-12T14:09:47.979Z,5.3
2019-05-12T14:11:00.725Z,4.7
2019-05-12T14:12:04.805Z,4.7
2019-05-12T14:13:06.116Z,4.9
2019-05-12T14:14:16.511Z,4.9
2019-05-12T14:15:18.377Z,5.4
2019-05-12T14:16:20.250Z,5.2
2019-05-12T14:17:24.388Z,5
2019-05-12T14:18:26.253Z,5.3
2019-05-12T14:19:37.814Z,5.4
2019-05-12T14:20:39.683Z,5.2
2019-05-12T14:21:43.600Z,5.5
2019-05-12T14:22:46.360Z,5.2
2019-05-12T14:23:47.938Z,5.1
2019-05-12T14:24:49.531Z,5.4
2019-05-12T14:25:54.051Z,6
2019-05-12T14:26:56.036Z,5.7
2019-05-12T14:28:10.098Z,6.1
2019-05-12T14:29:14.259Z,6
2019-05-12T14:30:16.248Z,6.2
2019-05-12T14:31:54.373Z,6.3
2019-05-12T14:33:00.664Z,6.4
2019-05-12T14:34:04.768Z,6
2019-05-12T14:35:06.634Z,6.2
2019-05-12T14:36:13.511Z,6.4
2019-05-12T14:37:19.079Z,6.5
2019-05-12T14:38:30.800Z,6.2
2019-05-12T14:39:34.878Z,6.4
2019-05-12T14:40:36.743Z,5.8
2019-05-12T14:41:44.206Z,5.9
2019-05-12T14:42:55.853Z,6
2019-05-12T14:44:04.703Z,6.2
2019-05-12T14:45:06.571Z,6.1